Time;durP1;ratioP1;P1;durP2;ratioP2;P2;SDS_P1;SDS_P2;PMS_P1;PMS_P2;Temp;Humidity;BMP_temperature;BMP_pressure;BME280_temperature;BME280_humidity;BME280_pressure;Samples;Min_cycle;Max_cycle;Signal;HPM_P1;HPM_P2
2021/05/22 00:00:12;;;;;;;1.10;1.10;;;13.10;69.20;;;12.85;53.37;94180.88;5122124;27;20568;-82
2021/05/22 00:02:39;;;;;;;1.13;1.13;;;13.10;69.00;;;12.86;53.33;94162.22;5089613;28;20269;-81
2021/05/22 00:05:07;;;;;;;1.15;1.15;;;13.10;69.10;;;12.86;53.35;94158.81;5048984;28;20220;-82
2021/05/22 00:07:33;;;;;;;1.10;1.10;;;13.10;69.20;;;12.83;53.22;94154.81;5053227;28;20233;-81
2021/05/22 00:10:01;;;;;;;1.85;1.40;;;13.20;69.20;;;12.87;53.07;94169.09;5057954;28;20188;-81
2021/05/22 00:12:28;;;;;;;1.40;1.30;;;13.20;69.30;;;12.86;53.26;94169.34;5030760;28;20216;-81
2021/05/22 00:14:55;;;;;;;1.45;1.35;;;13.20;69.30;;;12.87;53.29;94165.69;4905273;28;20213;-82
2021/05/22 00:17:22;;;;;;;1.30;1.20;;;13.10;69.20;;;12.79;53.43;94149.19;4698820;29;20229;-81
2021/05/22 00:21:38;;;;;;;1.30;1.20;;;13.20;69.20;;;12.79;53.42;94148.38;5130141;27;20970;-81
2021/05/22 00:24:05;;;;;;;1.35;1.25;;;13.20;69.20;;;12.76;53.19;94162.78;5089331;28;20214;-80
2021/05/22 00:26:32;;;;;;;1.25;1.23;;;13.10;69.20;;;12.71;53.31;94153.97;5055473;28;20214;-81
2021/05/22 00:28:58;;;;;;;1.55;1.45;;;13.10;69.30;;;12.74;53.51;94161.41;5068052;28;20215;-81
2021/05/22 00:31:25;;;;;;;1.48;1.33;;;13.10;69.20;;;12.73;53.55;94173.75;5037145;28;20228;-81
2021/05/22 00:33:51;;;;;;;1.75;1.30;;;13.10;69.30;;;12.73;53.42;94178.22;4984470;28;20225;-82
2021/05/22 00:36:18;;;;;;;1.85;1.10;;;13.10;69.30;;;12.71;53.84;94173.19;4940174;28;20208;-81
2021/05/22 00:38:44;;;;;;;1.30;1.20;;;13.00;69.40;;;12.67;53.71;94172.03;4848481;29;20297;-80
2021/05/22 00:42:37;;;;;;;1.00;1.00;;;13.10;69.50;;;12.64;53.75;94169.81;5146825;27;20653;-81
2021/05/22 00:45:16;;;;;;;3.28;1.50;;;13.00;69.30;;;12.62;54.09;94163.97;5052738;28;20233;-80
2021/05/22 00:47:56;;;;;;;1.08;1.08;;;13.00;69.50;;;12.60;53.62;94166.03;5039234;28;20287;-82
2021/05/22 00:50:27;;;;;;;1.10;1.00;;;13.00;69.80;;;12.57;53.73;94158.59;5014914;28;20621;-82
2021/05/22 00:52:54;;;;;;;1.30;1.20;;;13.00;69.40;;;12.57;53.82;94156.78;4968534;28;20483;-81
2021/05/22 00:55:23;;;;;;;1.02;1.00;;;13.00;69.60;;;12.61;53.88;94170.28;4918411;29;20310;-81
2021/05/22 00:57:50;;;;;;;1.27;1.17;;;12.90;69.60;;;12.62;54.01;94161.34;4699299;30;20245;-81
2021/05/22 01:00:20;;;;;;;1.52;1.20;;;12.90;69.60;;;12.64;54.27;94148.78;4600041;30;20221;-81
2021/05/22 01:02:57;;;;;;;1.50;1.40;;;12.90;69.90;;;12.66;54.01;94141.47;5143302;27;20396;-81
2021/05/22 01:05:24;;;;;;;1.33;1.23;;;12.90;69.80;;;12.68;53.84;94131.50;5106402;28;20682;-81
2021/05/22 01:07:51;;;;;;;1.30;1.20;;;12.90;69.80;;;12.70;54.06;94121.56;5087388;28;20801;-80
2021/05/22 01:10:18;;;;;;;1.15;1.15;;;13.00;69.90;;;12.73;53.90;94104.53;5085999;28;20194;-81
2021/05/22 01:12:48;;;;;;;1.40;1.30;;;13.00;69.90;;;12.73;53.90;94110.63;5057218;28;20253;-80
2021/05/22 01:15:20;;;;;;;1.17;1.17;;;13.00;70.10;;;12.72;53.97;94095.84;5011501;28;20199;-80
2021/05/22 01:17:49;;;;;;;1.23;1.23;;;13.00;70.00;;;12.71;54.01;94104.75;4948793;28;20257;-79
2021/05/22 01:20:35;;;;;;;2.30;1.33;;;13.00;70.00;;;12.68;54.12;94086.00;4840836;29;20678;-82
2021/05/22 01:23:23;;;;;;;1.30;1.20;;;13.10;70.00;;;12.62;54.21;94099.03;5141276;27;20415;-81
2021/05/22 01:25:52;;;;;;;1.10;1.10;;;13.00;70.10;;;12.57;54.29;94095.44;5075093;28;20234;-80
2021/05/22 01:28:19;;;;;;;1.15;1.10;;;13.00;69.80;;;12.52;54.30;94092.69;5063765;28;20279;-80
2021/05/22 01:30:47;;;;;;;1.40;1.30;;;13.00;69.90;;;12.48;54.32;94093.13;5036699;28;20630;-81
2021/05/22 01:33:14;;;;;;;1.38;1.20;;;13.00;69.90;;;12.47;54.38;94098.63;5000319;28;20274;-80
2021/05/22 01:35:42;;;;;;;1.10;1.10;;;12.90;69.90;;;12.42;55.02;94091.41;4902408;28;20214;-81
2021/05/22 01:38:09;;;;;;;1.30;1.20;;;12.90;70.10;;;12.38;54.66;94077.09;4816699;29;20328;-81
2021/05/22 01:40:38;;;;;;;1.90;1.30;;;12.90;70.10;;;12.38;54.85;94084.16;4733038;29;24896;-81
2021/05/22 01:43:19;;;;;;;2.08;1.30;;;12.90;70.20;;;12.33;54.60;94090.91;5140897;27;20660;-81
2021/05/22 01:45:49;;;;;;;1.38;1.02;;;12.80;70.10;;;12.33;54.77;94093.53;5099871;28;20686;-81
2021/05/22 01:48:20;;;;;;;1.27;1.17;;;12.80;70.30;;;12.33;54.86;94095.38;5022893;28;20227;-80
2021/05/22 01:50:51;;;;;;;1.42;1.33;;;12.70;70.40;;;12.33;54.75;94092.75;5018935;28;20209;-81
2021/05/22 01:53:18;;;;;;;3.40;1.20;;;12.70;70.50;;;12.37;54.78;94104.41;4914938;28;20231;-80
2021/05/22 01:55:47;;;;;;;1.40;1.30;;;12.80;70.50;;;12.39;54.89;94102.38;4883126;29;20207;-80
2021/05/22 01:58:14;;;;;;;1.60;1.50;;;12.70;70.70;;;12.42;55.03;94099.28;4760577;29;20302;-81
2021/05/22 02:00:44;;;;;;;1.30;1.20;;;12.70;70.50;;;12.44;54.87;94088.56;4632165;30;20739;-81
2021/05/22 02:03:35;;;;;;;1.42;1.30;;;12.80;70.70;;;12.45;54.99;94098.84;5139854;27;20326;-81
2021/05/22 02:06:06;;;;;;;3.03;1.10;;;12.70;71.00;;;12.50;54.90;94106.09;5085164;28;20219;-81
2021/05/22 02:08:38;;;;;;;1.40;1.25;;;12.80;70.70;;;12.52;54.59;94111.91;5104412;27;20216;-82
2021/05/22 02:11:07;;;;;;;1.27;1.17;;;12.90;71.00;;;12.57;55.13;94124.38;5106640;28;20205;-80
2021/05/22 02:13:35;;;;;;;1.38;1.27;;;12.90;71.00;;;12.58;55.05;94129.41;5039310;28;20215;-81
2021/05/22 02:16:04;;;;;;;3.35;1.40;;;12.80;70.80;;;12.62;55.29;94127.97;4952719;28;20276;-80
2021/05/22 02:18:35;;;;;;;1.27;1.20;;;12.80;71.00;;;12.63;55.09;94126.13;4778233;29;20251;-81
2021/05/22 02:21:04;;;;;;;1.65;1.40;;;12.90;71.00;;;12.67;55.12;94121.22;4647545;30;20647;-81
2021/05/22 02:23:46;;;;;;;1.27;1.15;;;12.90;71.00;;;12.67;55.05;94114.16;5136700;27;20581;-81
2021/05/22 02:26:14;;;;;;;2.22;1.33;;;12.90;71.10;;;12.64;55.28;94112.75;5067858;28;20378;-81
2021/05/22 02:28:42;;;;;;;1.40;1.30;;;13.00;71.00;;;12.70;55.30;94118.16;5057420;28;20615;-80
2021/05/22 02:31:10;;;;;;;1.48;1.20;;;13.00;71.10;;;12.70;55.39;94116.31;5069285;28;20205;-80
2021/05/22 02:33:38;;;;;;;1.15;1.10;;;12.90;71.00;;;12.71;55.11;94115.28;5018290;28;20233;-79
2021/05/22 02:36:05;;;;;;;1.10;1.10;;;13.10;71.10;;;12.72;55.49;94116.09;4888574;28;20210;-81
2021/05/22 02:38:38;;;;;;;1.42;1.33;;;13.00;71.10;;;12.68;55.94;94110.47;4643554;30;20603;-83
2021/05/22 02:41:07;;;;;;;1.40;1.30;;;13.00;71.50;;;12.71;56.27;94104.75;4440841;31;20235;-80
2021/05/22 02:43:51;;;;;;;1.33;1.23;;;13.00;71.50;;;12.71;56.05;94098.72;5135785;27;20323;-80
2021/05/22 02:46:21;;;;;;;1.30;1.30;;;13.10;71.50;;;12.69;57.09;94091.03;5080291;28;20247;-82
2021/05/22 02:48:51;;;;;;;1.40;1.30;;;13.10;71.90;;;12.76;56.75;94101.47;5102155;28;20621;-80
2021/05/22 02:51:22;;;;;;;1.33;1.20;;;13.10;71.90;;;12.73;57.38;94107.16;5042176;28;20666;-81
2021/05/22 02:53:50;;;;;;;1.55;1.40;;;13.10;72.00;;;12.76;57.98;94123.31;4947957;28;20226;-82
2021/05/22 02:56:17;;;;;;;1.35;1.25;;;13.10;72.40;;;12.76;57.94;94131.19;4950597;28;20203;-80
2021/05/22 02:58:45;;;;;;;1.83;1.10;;;13.10;72.40;;;12.75;58.03;94142.75;4862607;29;20231;-80
2021/05/22 03:01:11;;;;;;;1.30;1.20;;;13.20;72.50;;;12.71;58.29;94146.88;4671885;29;20314;-80
2021/05/22 03:03:45;;;;;;;2.88;1.20;;;13.10;72.50;;;12.73;58.60;94151.91;5129338;27;20724;-81
2021/05/22 03:06:12;;;;;;;1.35;1.25;;;13.20;72.70;;;12.75;58.35;94163.78;5092563;28;20221;-80
2021/05/22 03:08:46;;;;;;;1.30;1.20;;;13.20;72.70;;;12.75;57.99;94150.63;5097310;28;20221;-81
2021/05/22 03:11:15;;;;;;;1.10;1.10;;;13.20;72.80;;;12.77;58.09;94161.75;5056254;28;20213;-81
2021/05/22 03:13:41;;;;;;;1.50;1.40;;;13.10;72.60;;;12.75;58.11;94163.78;5019789;28;20335;-80
2021/05/22 03:16:08;;;;;;;1.40;1.10;;;13.10;72.60;;;12.82;57.83;94172.41;4914477;28;20216;-80
2021/05/22 03:18:35;;;;;;;1.23;1.20;;;13.10;72.50;;;12.82;57.80;94180.28;4802889;29;20287;-81
2021/05/22 03:21:02;;;;;;;1.13;1.10;;;13.10;73.40;;;12.86;57.49;94190.41;4591326;30;20320;-80
2021/05/22 03:25:12;;;;;;;1.20;1.10;;;13.10;72.50;;;12.84;57.15;94166.13;5147906;27;20568;-79
2021/05/22 03:27:39;;;;;;;1.00;1.00;;;13.20;72.20;;;12.82;57.99;94176.88;5088416;27;20220;-80
2021/05/22 03:30:09;;;;;;;1.10;1.00;;;13.20;72.40;;;12.82;58.34;94188.19;5072050;28;20217;-80
2021/05/22 03:32:35;;;;;;;0.90;0.90;;;13.20;72.60;;;12.82;57.85;94196.09;5051689;28;21692;-80
2021/05/22 03:35:04;;;;;;;0.85;0.85;;;13.20;72.50;;;12.81;57.85;94209.47;5009155;28;20298;-80
2021/05/22 03:37:31;;;;;;;1.92;1.20;;;13.20;72.50;;;12.77;57.66;94201.22;4966120;28;20320;-83
2021/05/22 03:39:57;;;;;;;1.20;1.10;;;13.20;72.40;;;12.81;57.64;94207.63;4886202;29;20584;-80
2021/05/22 03:42:24;;;;;;;1.20;1.10;;;13.30;73.40;;;12.80;58.02;94194.72;4733323;29;20781;-80
2021/05/22 03:46:39;;;;;;;1.25;1.15;;;13.10;72.50;;;12.74;58.21;94208.75;5148025;27;20540;-81
2021/05/22 03:49:05;;;;;;;5.65;1.00;;;13.30;72.70;;;12.68;59.04;94210.44;5085199;28;20221;-81
2021/05/22 03:51:32;;;;;;;1.00;1.00;;;13.20;72.80;;;12.58;59.49;94200.44;5074107;28;20666;-81
2021/05/22 03:53:58;;;;;;;1.25;1.13;;;13.20;73.20;;;12.40;60.00;94195.22;5045037;28;20218;-81
2021/05/22 03:56:25;;;;;;;0.98;0.98;;;13.10;73.50;;;12.26;60.78;94197.22;5034972;28;20746;-80
2021/05/22 03:58:53;;;;;;;0.85;0.85;;;13.00;73.70;;;12.13;61.10;94192.88;5008378;28;20233;-81
2021/05/22 04:01:20;;;;;;;1.05;1.00;;;12.90;74.00;;;12.04;60.47;94205.53;4902833;28;20280;-81
2021/05/22 04:03:46;;;;;;;1.15;1.10;;;12.80;73.90;;;11.92;61.88;94208.03;4725762;29;20243;-81
2021/05/22 04:08:20;;;;;;;1.00;1.00;;;12.70;74.00;;;11.79;61.82;94213.41;5140611;27;20662;-80
2021/05/22 04:10:47;;;;;;;1.00;1.00;;;12.70;74.30;;;11.68;62.22;94205.22;5094280;28;20246;-80
2021/05/22 04:13:14;;;;;;;0.88;0.82;;;12.50;74.70;;;11.68;62.31;94220.16;5103671;28;20229;-80
2021/05/22 04:15:40;;;;;;;1.10;1.00;;;12.40;75.00;;;11.67;62.36;94226.47;5042082;28;20201;-80
2021/05/22 04:18:09;;;;;;;1.00;1.00;;;12.40;75.00;;;11.65;61.52;94228.50;5023512;28;20229;-80
2021/05/22 04:20:36;;;;;;;0.93;0.90;;;12.30;75.00;;;11.66;61.42;94222.22;4927083;28;20563;-80
2021/05/22 04:23:03;;;;;;;1.58;1.08;;;12.20;75.00;;;11.65;61.02;94239.00;4869189;29;20238;-80
2021/05/22 04:25:30;;;;;;;0.88;0.88;;;12.20;75.10;;;11.65;61.27;94239.78;4706382;29;20223;-80
2021/05/22 04:29:31;;;;;;;0.93;0.93;;;12.20;75.10;;;11.62;61.10;94239.41;5130083;27;20583;-81
2021/05/22 04:31:58;;;;;;;0.93;0.93;;;12.10;74.90;;;11.60;61.70;94234.38;5091087;28;20205;-81
2021/05/22 04:34:24;;;;;;;0.80;0.80;;;12.10;75.30;;;11.59;61.71;94229.34;5107237;27;20225;-80
2021/05/22 04:36:51;;;;;;;0.88;0.88;;;12.20;75.30;;;11.54;62.00;94224.75;5104813;28;20204;-81
2021/05/22 04:39:17;;;;;;;0.77;0.75;;;12.10;75.50;;;11.54;61.87;94230.00;5013802;28;20236;-80
2021/05/22 04:41:44;;;;;;;0.90;0.90;;;12.00;75.30;;;11.51;61.27;94228.59;4911326;28;20221;-81
2021/05/22 04:44:10;;;;;;;0.80;0.80;;;12.00;75.30;;;11.52;61.59;94227.59;4816926;29;20327;-80
2021/05/22 04:46:37;;;;;;;0.68;0.68;;;12.10;75.60;;;11.52;61.63;94245.16;4644614;30;20642;-80
2021/05/22 04:50:42;;;;;;;1.10;1.02;;;12.00;75.50;;;11.47;62.61;94261.53;5127952;27;20569;-79
2021/05/22 04:53:09;;;;;;;1.00;1.00;;;12.00;75.70;;;11.49;62.03;94269.22;5096585;28;20224;-80
2021/05/22 04:55:36;;;;;;;0.93;0.90;;;12.00;75.90;;;11.49;62.18;94272.66;5030035;28;20212;-79
2021/05/22 04:58:03;;;;;;;0.90;0.90;;;12.00;76.00;;;11.46;61.86;94273.09;5022073;28;20716;-81
2021/05/22 05:00:30;;;;;;;1.08;1.08;;;12.00;76.80;;;11.52;61.91;94282.75;4965126;28;20683;-79
2021/05/22 05:02:56;;;;;;;2.13;1.00;;;12.00;76.00;;;11.52;62.78;94285.38;4807820;29;20234;-80
2021/05/22 05:05:24;;;;;;;1.00;1.00;;;12.00;76.00;;;11.56;62.16;94296.25;4763202;29;20280;-80
2021/05/22 05:07:50;;;;;;;1.05;1.00;;;11.90;76.00;;;11.57;62.95;94299.66;4639206;30;20749;-80
2021/05/22 05:12:54;;;;;;;1.10;1.00;;;12.00;76.00;;;11.64;62.17;94297.81;5119988;27;20830;-80
2021/05/22 05:15:21;;;;;;;0.90;0.90;;;12.00;76.00;;;11.65;61.93;94292.31;5083970;28;20562;-80
2021/05/22 05:17:48;;;;;;;1.38;1.08;;;12.00;76.00;;;11.67;61.95;94295.56;5056556;28;20304;-81
2021/05/22 05:20:14;;;;;;;1.08;1.08;;;12.00;76.00;;;11.73;61.64;94287.84;5045605;28;20217;-80
2021/05/22 05:22:41;;;;;;;19.65;11.02;;;12.00;76.00;;;11.78;60.96;94306.38;4999800;28;20283;-80
2021/05/22 05:25:08;;;;;;;4.30;3.08;;;12.10;76.10;;;11.80;61.89;94312.22;4990375;28;20294;-80
2021/05/22 05:27:35;;;;;;;2.45;1.70;;;12.10;76.10;;;11.84;61.52;94318.69;4948734;28;20225;-82
2021/05/22 05:30:03;;;;;;;2.38;1.30;;;12.10;76.10;;;11.88;61.37;94330.38;4936073;28;20256;-81
2021/05/22 05:35:09;;;;;;;1.00;1.00;;;12.20;76.10;;;11.96;61.15;94332.75;5145252;27;20459;-80
2021/05/22 05:37:38;;;;;;;1.00;1.00;;;12.20;76.00;;;11.96;61.41;94340.66;5063606;28;20573;-81
2021/05/22 05:40:07;;;;;;;1.55;1.45;;;12.30;76.00;;;11.96;61.11;94342.44;5092884;28;20199;-80
2021/05/22 05:42:34;;;;;;;1.02;1.02;;;12.30;75.70;;;11.94;61.26;94352.38;5066366;28;20231;-80
2021/05/22 05:45:01;;;;;;;0.93;0.93;;;12.30;75.70;;;11.92;60.97;94346.50;5052918;28;20238;-80
2021/05/22 05:47:27;;;;;;;1.05;1.00;;;12.30;75.50;;;11.92;60.85;94355.19;5045663;28;20212;-80
2021/05/22 05:49:54;;;;;;;1.10;1.00;;;12.30;75.30;;;11.91;61.04;94344.91;4951208;28;20216;-81
2021/05/22 05:52:21;;;;;;;2.92;1.30;;;12.30;75.40;;;11.86;60.95;94350.78;4798768;29;20212;-81
2021/05/22 05:57:04;;;;;;;2.13;1.63;;;12.40;75.40;;;11.74;61.30;94348.03;5138250;27;20556;-83
2021/05/22 05:59:31;;;;;;;4.57;2.50;;;12.30;75.20;;;11.68;60.97;94343.63;5088654;28;20233;-85
2021/05/22 06:01:57;;;;;;;1.63;1.38;;;12.20;75.10;;;11.66;60.94;94349.09;5031124;28;20220;-86
2021/05/22 06:04:24;;;;;;;0.90;0.90;;;12.20;75.30;;;11.62;61.33;94361.06;5006863;28;20233;-84
2021/05/22 06:06:51;;;;;;;1.48;1.40;;;12.20;75.30;;;11.63;61.18;94359.22;4939987;28;20213;-83
2021/05/22 06:09:17;;;;;;;1.40;1.30;;;12.10;75.30;;;11.63;61.06;94354.81;4835295;29;20269;-83
2021/05/22 06:11:44;;;;;;;1.10;1.10;;;12.20;75.30;;;11.63;60.64;94352.19;4805110;29;20549;-83
2021/05/22 06:14:27;;;;;;;1.00;1.00;;;12.10;75.20;;;11.64;61.35;94338.00;4766508;29;20242;-84
2021/05/22 06:17:05;;;;;;;1.02;1.00;;;12.10;75.30;;;11.66;60.68;94337.81;5151327;27;20380;-84
2021/05/22 06:19:32;;;;;;;1.17;1.10;;;12.10;75.20;;;11.72;60.38;94338.75;5110756;27;20223;-84
2021/05/22 06:21:59;;;;;;;1.00;1.00;;;12.00;75.20;;;11.75;60.75;94362.00;5088085;28;20309;-84
2021/05/22 06:24:25;;;;;;;1.10;1.10;;;12.10;75.30;;;11.80;60.29;94343.75;5026144;28;20235;-86
2021/05/22 06:26:57;;;;;;;1.40;0.90;;;12.10;75.30;;;11.83;60.83;94340.72;4971531;28;20210;-86
2021/05/22 06:29:24;;;;;;;0.90;0.90;;;12.20;75.40;;;11.86;60.42;94363.94;4872168;29;20231;-86
2021/05/22 06:31:51;;;;;;;1.13;1.02;;;12.20;75.40;;;11.91;60.45;94369.34;4771774;29;20213;-86
2021/05/22 06:34:18;;;;;;;1.00;1.00;;;12.20;75.30;;;11.94;60.50;94361.03;4696707;30;20253;-86
2021/05/22 06:36:56;;;;;;;1.05;1.05;;;12.20;75.50;;;12.07;60.55;94354.09;5145286;27;20852;-83
2021/05/22 06:39:24;;;;;;;0.90;0.90;;;12.40;75.60;;;12.21;60.35;94349.56;5103733;27;20219;-85
2021/05/22 06:41:51;;;;;;;1.83;1.05;;;12.40;75.70;;;12.36;60.00;94343.94;5115721;27;20203;-85
2021/05/22 06:47:04;;;;;;;1.00;1.00;;;12.60;75.70;;;12.58;59.57;94350.41;5030597;28;20235;-86
2021/05/22 06:49:32;;;;;;;0.90;0.90;;;12.70;75.50;;;12.63;58.88;94341.84;4999760;28;20225;-84
2021/05/22 06:52:02;;;;;;;0.80;0.80;;;12.80;75.00;;;12.66;59.15;94354.59;4898211;28;20226;-84
2021/05/22 06:54:41;;;;;;;1.20;1.10;;;12.80;74.80;;;12.65;58.78;94352.97;5144613;27;20541;-84
2021/05/22 06:57:08;;;;;;;1.00;1.00;;;12.80;74.50;;;12.66;58.84;94354.59;5092154;28;20337;-83
2021/05/22 06:59:35;;;;;;;0.95;0.90;;;13.00;74.50;;;12.68;58.41;94347.25;5088046;28;20230;-84
2021/05/22 07:02:02;;;;;;;1.10;1.00;;;13.00;74.20;;;12.67;58.09;94339.59;5048929;28;20253;-85
2021/05/22 07:04:29;;;;;;;1.00;1.00;;;13.10;74.00;;;12.67;57.96;94344.84;5009426;28;20221;-85
2021/05/22 07:06:56;;;;;;;0.80;0.80;;;13.00;73.60;;;12.62;57.91;94346.31;4907368;28;20680;-85
2021/05/22 07:09:23;;;;;;;0.90;0.90;;;13.00;73.50;;;12.69;58.07;94343.59;4836521;29;20290;-85
2021/05/22 07:14:28;;;;;;;1.58;1.00;;;13.00;73.50;;;12.70;57.51;94342.59;5131680;27;20648;-85
2021/05/22 07:16:57;;;;;;;0.93;0.93;;;13.00;73.10;;;12.70;57.29;94347.06;5102582;28;20297;-85
2021/05/22 07:19:26;;;;;;;1.00;1.00;;;13.00;72.90;;;12.75;57.46;94353.25;5089958;28;20207;-85
2021/05/22 07:21:53;;;;;;;1.10;1.00;;;13.10;73.10;;;12.82;57.56;94350.56;5033444;28;20209;-84
2021/05/22 07:24:21;;;;;;;1.10;1.10;;;13.10;73.30;;;12.88;57.09;94352.31;5068453;28;20531;-86
2021/05/22 07:26:49;;;;;;;1.50;1.30;;;13.10;73.20;;;12.92;56.98;94365.84;5001895;28;20199;-85
2021/05/22 07:29:18;;;;;;;0.90;0.90;;;13.10;73.00;;;12.92;56.55;94369.28;4929912;28;20686;-88
2021/05/22 07:34:23;;;;;;;1.20;1.10;;;13.20;72.70;;;12.90;56.70;94363.44;5132166;27;20571;-84
2021/05/22 07:36:49;;;;;;;2.33;1.13;;;13.30;72.70;;;12.88;56.48;94376.00;5099225;28;20261;-84
2021/05/22 07:39:16;;;;;;;3.35;1.20;;;13.20;72.50;;;12.88;56.68;94365.47;5078927;28;20225;-83
2021/05/22 07:41:47;;;;;;;1.15;1.10;;;13.20;72.40;;;12.83;56.67;94365.34;5066026;28;20202;-84
2021/05/22 07:44:14;;;;;;;1.20;1.10;;;13.20;72.30;;;12.82;56.59;94367.16;5028050;28;20701;-83
2021/05/22 07:46:41;;;;;;;1.20;1.10;;;13.20;72.30;;;12.79;56.31;94366.78;4964273;28;20222;-85
2021/05/22 07:49:08;;;;;;;1.00;1.00;;;13.20;72.10;;;12.79;56.30;94377.31;4873191;29;20602;-83
2021/05/22 07:51:35;;;;;;;1.58;1.10;;;13.20;72.20;;;12.79;55.85;94358.88;4796616;29;20224;-84
2021/05/22 07:54:09;;;;;;;1.17;1.10;;;13.20;71.80;;;12.78;56.44;94360.72;5134224;27;20396;-84
2021/05/22 07:56:36;;;;;;;0.95;0.95;;;13.10;72.20;;;12.89;56.70;94353.94;5119060;28;20209;-84
2021/05/22 07:59:02;;;;;;;1.58;1.05;;;13.20;72.50;;;13.00;56.66;94347.13;5104923;28;20244;-84
2021/05/22 08:01:30;;;;;;;1.10;1.00;;;13.20;72.50;;;13.18;56.52;94346.28;5085203;28;20218;-83
2021/05/22 08:03:57;;;;;;;1.05;0.98;;;13.30;72.80;;;13.32;55.50;94348.75;5048634;28;20226;-85
2021/05/22 08:06:23;;;;;;;2.15;1.00;;;13.40;72.50;;;13.39;55.19;94337.16;5034000;28;20200;-84
2021/05/22 08:08:50;;;;;;;1.20;1.10;;;13.40;72.00;;;13.51;55.51;94345.09;4858387;29;20236;-86
2021/05/22 08:11:16;;;;;;;1.25;1.10;;;13.50;72.20;;;13.63;55.38;94350.38;4709571;29;21529;-85
2021/05/22 08:13:54;;;;;;;1.45;1.35;;;13.60;72.20;;;13.65;54.58;94329.91;5134611;27;20411;-87
2021/05/22 08:16:21;;;;;;;1.10;1.10;;;13.80;71.80;;;13.69;54.63;94353.97;5090897;28;20602;-86
2021/05/22 08:18:48;;;;;;;1.73;1.10;;;13.80;71.40;;;13.66;53.75;94365.75;5073886;28;21638;-85
2021/05/22 08:21:17;;;;;;;1.25;1.08;;;13.80;71.10;;;13.66;53.73;94368.41;5054678;28;20269;-83
2021/05/22 08:23:44;;;;;;;2.92;1.00;;;13.90;70.90;;;13.66;53.80;94355.22;4990568;28;20280;-85
2021/05/22 08:26:11;;;;;;;1.90;1.10;;;13.80;70.70;;;13.70;53.88;94345.03;4936917;28;20252;-85
2021/05/22 08:28:59;;;;;;;1.27;1.15;;;13.90;70.90;;;13.77;54.25;94343.13;4742237;29;20234;-85
2021/05/22 08:33:50;;;;;;;1.25;1.15;;;13.90;71.00;;;13.96;53.72;94343.81;5133394;27;21127;-85
2021/05/22 08:36:17;;;;;;;1.42;0.95;;;14.00;70.80;;;14.04;53.47;94356.69;5064999;28;20190;-84
2021/05/22 08:38:45;;;;;;;0.93;0.90;;;14.10;70.60;;;14.14;53.69;94342.13;5079036;27;21135;-85
2021/05/22 08:41:12;;;;;;;1.20;1.10;;;14.20;71.70;;;14.17;52.41;94324.03;5058580;28;20207;-86
2021/05/22 08:43:39;;;;;;;1.10;1.00;;;14.30;70.30;;;14.29;52.59;94350.38;5005865;28;20236;-84
2021/05/22 08:46:10;;;;;;;1.20;1.10;;;14.30;70.10;;;14.32;52.88;94346.50;4940772;28;20233;-84
2021/05/22 08:48:38;;;;;;;1.13;1.10;;;14.40;70.10;;;14.31;51.73;94369.44;4850499;29;20237;-81
2021/05/22 08:53:48;;;;;;;1.08;1.00;;;14.50;70.00;;;14.30;52.02;94354.63;5136397;27;20437;-82
2021/05/22 08:56:16;;;;;;;1.08;1.08;;;14.50;69.40;;;14.37;52.32;94354.53;5105314;28;20269;-82
2021/05/22 08:58:43;;;;;;;1.05;0.95;;;14.50;69.60;;;14.48;53.08;94358.22;5059020;28;20709;-83
2021/05/22 09:01:10;;;;;;;1.52;0.90;;;14.50;70.00;;;14.53;51.45;94356.47;4974652;28;20201;-82
2021/05/22 09:03:37;;;;;;;0.80;0.80;;;14.60;69.50;;;14.65;52.09;94358.31;4968003;28;20234;-83
2021/05/22 09:06:04;;;;;;;0.70;0.70;;;14.70;69.80;;;14.80;51.77;94361.31;4930275;28;20605;-82
2021/05/22 09:08:32;;;;;;;1.08;0.82;;;14.80;69.70;;;14.92;51.65;94350.72;4827284;29;20258;-82
2021/05/22 09:11:04;;;;;;;0.90;0.90;;;14.90;69.60;;;15.10;50.57;94367.44;4671383;29;20347;-84
2021/05/22 09:13:41;;;;;;;1.10;1.00;;;15.00;68.80;;;15.19;50.74;94360.78;5137025;27;20315;-81
2021/05/22 09:16:09;;;;;;;1.25;0.80;;;15.10;69.10;;;15.34;51.33;94357.63;5105972;28;20209;-81
2021/05/22 09:18:39;;;;;;;2.30;1.00;;;15.20;69.40;;;15.56;51.52;94355.13;5099580;28;20264;-81
2021/05/22 09:21:11;;;;;;;0.95;0.93;;;15.30;69.40;;;15.73;50.60;94365.75;5102061;28;20209;-83
2021/05/22 09:23:41;;;;;;;0.98;0.90;;;15.50;69.40;;;15.93;50.28;94361.88;4999082;28;20640;-82
2021/05/22 09:26:13;;;;;;;1.10;1.00;;;15.60;68.90;;;16.10;49.75;94351.31;4972911;28;20670;-82
2021/05/22 09:28:51;;;;;;;2.40;1.10;;;15.80;68.60;;;16.14;49.09;94355.88;4996113;28;20231;-83
2021/05/22 09:34:00;;;;;;;1.90;1.10;;;15.90;67.90;;;16.09;48.57;94368.25;5120810;27;21170;-80
2021/05/22 09:36:46;;;;;;;1.52;1.17;;;16.00;67.20;;;16.07;48.75;94367.66;5085947;28;20241;-81
2021/05/22 09:39:19;;;;;;;1.27;1.10;;;16.10;67.20;;;16.13;48.28;94367.50;5055422;28;20219;-81
2021/05/22 09:41:48;;;;;;;1.67;1.23;;;16.20;67.10;;;16.27;49.16;94360.06;5049605;28;20554;-80
2021/05/22 09:44:25;;;;;;;2.58;1.08;;;16.20;67.50;;;16.45;48.59;94360.84;5008477;28;20323;-80
2021/05/22 09:46:52;;;;;;;1.67;1.30;;;16.30;67.30;;;16.54;47.53;94371.81;4847830;28;20215;-81
2021/05/22 09:49:31;;;;;;;1.38;1.27;;;16.40;66.80;;;16.55;47.59;94373.44;4870425;29;20633;-80
2021/05/22 09:54:06;;;;;;;1.33;1.20;;;16.40;66.60;;;16.56;47.76;94359.16;5130814;27;20648;-80
2021/05/22 09:56:34;;;;;;;2.13;1.10;;;16.50;66.50;;;16.64;48.09;94367.47;5088507;28;20251;-80
2021/05/22 09:59:02;;;;;;;4.80;1.20;;;16.60;66.80;;;16.79;48.46;94385.44;5040146;28;20315;-80
2021/05/22 10:01:41;;;;;;;1.92;1.20;;;16.70;67.00;;;16.98;48.42;94360.53;5018355;28;20197;-81
2021/05/22 10:04:21;;;;;;;2.05;1.23;;;16.70;67.10;;;17.21;46.58;94362.97;4888467;29;20233;-80
2021/05/22 10:06:48;;;;;;;2.28;1.33;;;16.90;66.20;;;17.28;46.20;94357.47;4773886;29;20218;-81
2021/05/22 10:09:20;;;;;;;1.70;1.27;;;17.10;65.90;;;17.17;45.04;94380.38;4652830;30;20247;-81
2021/05/22 10:12:28;;;;;;;1.92;1.20;;;17.10;64.90;;;16.89;45.90;94362.78;5122091;27;20625;-79
2021/05/22 10:14:57;;;;;;;3.03;1.40;;;17.10;64.80;;;16.79;45.78;94369.53;5085508;28;20293;-81
2021/05/22 10:17:24;;;;;;;1.73;1.33;;;17.00;64.70;;;16.65;45.54;94355.84;5048555;28;20704;-80
2021/05/22 10:19:51;;;;;;;4.22;1.50;;;17.00;64.20;;;16.59;45.49;94367.41;4991400;28;20256;-81
2021/05/22 10:22:19;;;;;;;1.40;1.30;;;16.90;64.20;;;16.46;45.63;94352.66;4921878;28;20224;-80
2021/05/22 10:24:47;;;;;;;3.35;1.30;;;16.80;64.20;;;16.44;45.20;94346.81;4828248;29;20281;-80
2021/05/22 10:27:15;;;;;;;3.53;1.50;;;16.70;64.00;;;16.51;45.64;94345.84;4704239;30;20634;-81
2021/05/22 10:29:42;;;;;;;2.15;1.25;;;16.70;64.40;;;16.50;45.10;94347.69;4532217;30;20247;-82
2021/05/22 10:32:27;;;;;;;2.42;1.50;;;16.70;64.30;;;16.60;44.73;94361.09;5130740;27;20315;-81
2021/05/22 10:34:55;;;;;;;2.85;1.40;;;16.70;64.00;;;16.70;45.31;94354.31;5083207;28;20468;-80
2021/05/22 10:37:44;;;;;;;1.92;1.38;;;16.70;64.10;;;16.81;43.10;94374.63;5037493;28;20236;-80
2021/05/22 10:40:15;;;;;;;2.70;1.38;;;16.80;63.60;;;16.90;44.58;94348.50;4992590;28;20208;-81
2021/05/22 10:42:53;;;;;;;1.33;1.13;;;16.90;63.90;;;17.03;44.21;94344.69;4931780;28;20600;-81
2021/05/22 10:45:31;;;;;;;2.13;1.40;;;16.90;63.80;;;17.18;43.62;94374.03;4708107;29;20249;-82
2021/05/22 10:48:02;;;;;;;2.05;1.23;;;17.00;63.60;;;17.26;42.98;94370.97;4584133;30;20256;-81
2021/05/22 10:50:47;;;;;;;3.72;1.30;;;17.00;62.80;;;17.20;42.63;94353.41;5135293;27;20575;-80
2021/05/22 10:53:32;;;;;;;2.28;1.30;;;17.10;62.50;;;17.13;41.97;94372.13;5075443;28;20221;-82
2021/05/22 10:56:07;;;;;;;3.40;1.30;;;17.10;62.10;;;17.05;42.52;94358.50;5001200;28;20251;-82
2021/05/22 10:58:36;;;;;;;2.88;1.10;;;17.10;62.20;;;17.06;43.12;94360.91;4968128;28;20232;-82
2021/05/22 11:01:34;;;;;;;1.70;1.13;;;17.10;62.30;;;17.11;43.24;94363.66;4867914;29;20209;-82
2021/05/22 11:06:45;;;;;;;2.33;1.25;;;17.20;62.60;;;17.33;42.97;94359.38;4689828;30;20246;-82
2021/05/22 11:11:33;;;;;;;1.73;1.40;;;17.30;62.50;;;17.48;43.44;94364.03;5138961;27;21082;-81